Time;durP1;ratioP1;P1;durP2;ratioP2;P2;SDS_P1;SDS_P2;PMS_P1;PMS_P2;Temp;Humidity;BMP_temperature;BMP_pressure;BME280_temperature;BME280_humidity;BME280_pressure;Samples;Min_cycle;Max_cycle;Signal;HPM_P1;HPM_P2
2021/11/22 00:00:29;;;;;;;4.00;3.60;;;;;;;14.97;55.21;98921.86;1805063;79;21663;-60
2021/11/22 00:02:56;;;;;;;4.00;3.60;;;;;;;14.97;55.20;98919.67;1809490;79;21038;-60
2021/11/22 00:05:24;;;;;;;3.52;3.22;;;;;;;14.96;55.19;98921.54;1804663;78;21145;-62
2021/11/22 00:07:50;;;;;;;4.05;3.60;;;;;;;14.97;55.20;98930.38;1804212;78;21005;-61
2021/11/22 00:10:18;;;;;;;4.30;3.90;;;;;;;14.97;55.16;98931.71;1782692;79;21096;-61
2021/11/22 00:12:45;;;;;;;4.30;3.77;;;;;;;14.97;55.15;98933.05;1792453;79;21030;-61
2021/11/22 00:15:15;;;;;;;3.92;3.52;;;;;;;14.96;55.15;98940.78;1802052;77;21033;-62
2021/11/22 00:17:43;;;;;;;3.98;3.67;;;;;;;14.95;55.13;98937.30;1796658;78;21144;-62
2021/11/22 00:20:13;;;;;;;3.67;3.30;;;;;;;14.96;55.12;98944.27;1788286;77;21096;-61
2021/11/22 00:22:43;;;;;;;3.90;3.60;;;;;;;14.95;55.11;98945.33;1795772;79;21042;-61
2021/11/22 00:25:11;;;;;;;4.33;3.92;;;;;;;14.95;55.11;98945.33;1800942;78;21505;-62
2021/11/22 00:27:39;;;;;;;4.10;3.77;;;;;;;14.93;55.12;98944.20;1807951;79;21038;-61
2021/11/22 00:30:10;;;;;;;4.40;4.00;;;;;;;14.95;55.10;98945.33;1795330;77;21146;-61
2021/11/22 00:32:39;;;;;;;4.05;3.65;;;;;;;14.94;55.10;98945.81;1803757;79;20975;-63
2021/11/22 00:35:20;;;;;;;4.25;3.85;;;;;;;14.96;55.09;98950.14;1790731;78;21549;-61
2021/11/22 00:37:51;;;;;;;4.03;3.72;;;;;;;14.93;55.11;98949.55;1784566;79;22059;-61
2021/11/22 00:40:15;;;;;;;3.87;3.58;;;;;;;14.93;55.10;98956.73;1791607;78;21075;-60
2021/11/22 00:42:46;;;;;;;3.60;3.30;;;;;;;14.93;55.10;98956.73;1788232;79;21230;-61
2021/11/22 00:45:12;;;;;;;4.50;4.10;;;;;;;14.93;55.07;98963.41;1791370;79;22018;-60
2021/11/22 00:47:39;;;;;;;3.92;3.62;;;;;;;14.92;55.07;98963.13;1783301;78;21068;-61
2021/11/22 00:50:07;;;;;;;4.45;4.05;;;;;;;14.93;55.06;98959.40;1797814;78;20991;-61
2021/11/22 00:52:33;;;;;;;3.98;3.50;;;;;;;14.92;55.05;98963.94;1810922;77;21033;-61
2021/11/22 00:55:00;;;;;;;4.17;3.77;;;;;;;14.92;55.05;98965.80;1809586;78;21823;-61
2021/11/22 00:57:27;;;;;;;3.90;3.60;;;;;;;14.92;55.02;98969.81;1806329;78;21651;-60
2021/11/22 00:59:54;;;;;;;3.67;3.37;;;;;;;14.90;55.02;98963.86;1782894;78;21002;-60
2021/11/22 01:02:22;;;;;;;3.98;3.60;;;;;;;14.91;55.04;98969.00;1808149;78;21605;-60
2021/11/22 01:04:48;;;;;;;4.10;3.70;;;;;;;14.91;55.01;98974.84;1801034;78;21537;-60
2021/11/22 01:07:15;;;;;;;4.08;3.72;;;;;;;14.92;54.98;98977.31;1806653;78;21102;-60
2021/11/22 01:09:41;;;;;;;4.37;3.98;;;;;;;14.91;54.98;98980.19;1788967;78;21125;-61
2021/11/22 01:12:09;;;;;;;4.62;4.22;;;;;;;14.91;54.98;98982.86;1803023;79;21010;-60
2021/11/22 01:14:36;;;;;;;4.05;3.65;;;;;;;14.91;54.95;98981.53;1797835;79;20986;-60
2021/11/22 01:17:04;;;;;;;4.37;3.98;;;;;;;14.91;54.94;98978.36;1807116;78;21557;-60
2021/11/22 01:19:30;;;;;;;4.55;4.12;;;;;;;14.90;54.94;98978.57;1786323;78;21131;-61
2021/11/22 01:21:57;;;;;;;4.65;4.25;;;;;;;14.90;54.94;98975.37;1793757;78;21021;-61
2021/11/22 01:24:23;;;;;;;4.05;3.70;;;;;;;14.90;54.93;98974.56;1799252;79;21025;-61
2021/11/22 01:26:50;;;;;;;3.92;3.62;;;;;;;14.90;54.95;98981.24;1801665;79;21092;-61
2021/11/22 01:29:16;;;;;;;4.20;3.77;;;;;;;14.89;54.94;98980.43;1803931;78;21002;-62
2021/11/22 01:31:42;;;;;;;4.17;3.77;;;;;;;14.89;54.94;98989.79;1802353;79;21203;-61
2021/11/22 01:34:09;;;;;;;3.92;3.62;;;;;;;14.89;54.93;98984.94;1790844;79;21009;-61
2021/11/22 01:36:35;;;;;;;4.60;4.20;;;;;;;14.88;54.91;98984.12;1801797;79;21069;-61
2021/11/22 01:39:03;;;;;;;4.30;3.90;;;;;;;14.89;54.92;98988.95;1796159;78;21002;-61
2021/11/22 01:41:29;;;;;;;4.37;3.98;;;;;;;14.88;54.93;98984.65;1782512;79;21069;-62
2021/11/22 01:43:56;;;;;;;4.28;3.85;;;;;;;14.88;54.93;98981.45;1798258;78;21057;-61
2021/11/22 01:46:22;;;;;;;3.85;3.45;;;;;;;14.88;54.89;98985.98;1785077;79;21017;-61
2021/11/22 01:48:49;;;;;;;3.92;3.58;;;;;;;14.87;54.89;98989.19;1791552;78;21013;-61
2021/11/22 01:51:15;;;;;;;4.50;4.08;;;;;;;14.87;54.89;98991.86;1800688;78;21137;-60
2021/11/22 01:53:42;;;;;;;4.53;4.12;;;;;;;14.87;54.89;98989.19;1789900;79;21516;-61
2021/11/22 01:56:08;;;;;;;3.95;3.55;;;;;;;14.87;54.87;98995.03;1811649;79;21101;-61
2021/11/22 01:58:37;;;;;;;4.10;3.70;;;;;;;14.87;54.87;98988.34;1747290;81;21026;-60
2021/11/22 02:01:05;;;;;;;3.62;3.33;;;;;;;14.85;54.89;98989.89;1769640;79;21673;-61
2021/11/22 02:03:31;;;;;;;4.17;3.77;;;;;;;14.85;54.88;98994.42;1797649;78;21528;-61
2021/11/22 02:05:58;;;;;;;3.95;3.65;;;;;;;14.85;54.85;98988.55;1805874;77;21031;-60
2021/11/22 02:08:25;;;;;;;3.80;3.50;;;;;;;14.84;54.87;98992.80;1796650;77;21214;-62
2021/11/22 02:13:42;;;;;;;3.83;3.50;;;;;;;14.86;54.88;98984.86;1774942;79;28150;-61
2021/11/22 02:16:08;;;;;;;4.03;3.62;;;;;;;14.81;54.89;98993.22;1733991;81;21073;-62
2021/11/22 02:18:35;;;;;;;4.70;4.30;;;;;;;14.82;54.87;98996.20;1743401;80;21094;-61
2021/11/22 02:21:02;;;;;;;4.15;3.80;;;;;;;14.82;54.87;99002.89;1741082;80;21674;-62
2021/11/22 02:23:29;;;;;;;3.98;3.58;;;;;;;14.81;54.87;99002.05;1728098;81;21033;-62
2021/11/22 02:25:55;;;;;;;4.17;3.77;;;;;;;14.81;54.87;98999.38;1725160;80;21553;-61
2021/11/22 02:28:22;;;;;;;3.75;3.45;;;;;;;14.81;54.88;98994.55;1725621;81;21499;-61
2021/11/22 02:30:49;;;;;;;4.70;4.03;;;;;;;14.80;54.87;98993.73;1740274;80;21832;-61
2021/11/22 02:33:19;;;;;;;4.20;3.80;;;;;;;14.79;54.85;98996.63;1732578;81;21544;-61
2021/11/22 02:35:51;;;;;;;4.12;3.72;;;;;;;14.80;54.85;98997.75;1756114;80;21016;-61
2021/11/22 02:38:22;;;;;;;4.12;3.72;;;;;;;14.81;54.85;99007.92;1740014;81;21045;-62
2021/11/22 02:40:48;;;;;;;3.80;3.50;;;;;;;14.80;54.87;99003.63;1732325;81;21502;-61
2021/11/22 02:43:15;;;;;;;3.90;3.60;;;;;;;14.78;54.85;99007.84;1735394;81;21220;-61
2021/11/22 02:45:42;;;;;;;4.33;3.92;;;;;;;14.79;54.86;99012.14;1738238;81;21049;-61
2021/11/22 02:48:08;;;;;;;4.10;3.58;;;;;;;14.78;54.85;99016.39;1744544;81;20993;-62
2021/11/22 02:50:36;;;;;;;4.03;3.70;;;;;;;14.78;54.85;99020.40;1729600;80;21100;-60
2021/11/22 02:53:02;;;;;;;4.20;3.80;;;;;;;14.77;54.84;99026.23;1705834;81;21095;-61
2021/11/22 02:55:29;;;;;;;4.20;3.80;;;;;;;14.77;54.84;99022.75;1697755;81;21151;-61
2021/11/22 02:57:56;;;;;;;4.20;3.80;;;;;;;14.77;54.84;99025.43;1705899;81;21006;-60
2021/11/22 03:00:26;;;;;;;3.87;3.50;;;;;;;14.76;54.85;99019.27;1715418;81;21048;-61
2021/11/22 03:02:53;;;;;;;4.50;4.10;;;;;;;14.75;54.84;99025.11;1701004;81;21025;-61
2021/11/22 03:05:20;;;;;;;4.10;3.70;;;;;;;14.75;54.85;99039.81;1712122;81;21077;-61
2021/11/22 03:07:49;;;;;;;4.37;3.98;;;;;;;14.74;54.84;99034.18;1695714;83;21078;-61
2021/11/22 03:10:16;;;;;;;4.60;4.20;;;;;;;14.74;54.85;99035.52;1688992;84;21046;-62
2021/11/22 03:12:44;;;;;;;4.58;4.17;;;;;;;14.72;54.86;99040.26;1689125;83;21590;-61
2021/11/22 03:15:14;;;;;;;4.85;4.35;;;;;;;14.72;54.84;99041.59;1649235;85;22076;-61
2021/11/22 03:17:42;;;;;;;4.03;3.67;;;;;;;14.72;54.85;99046.13;1658578;85;21078;-61
2021/11/22 03:20:11;;;;;;;3.72;3.42;;;;;;;14.71;54.83;99043.95;1680745;84;21209;-61
2021/11/22 03:22:38;;;;;;;4.05;3.70;;;;;;;14.71;54.86;99045.81;1674465;84;21596;-61
2021/11/22 03:25:07;;;;;;;4.40;4.00;;;;;;;14.71;54.83;99051.97;1661555;85;21118;-61
2021/11/22 03:27:35;;;;;;;4.10;3.70;;;;;;;14.70;54.82;99051.68;1663177;85;21177;-61
2021/11/22 03:30:04;;;;;;;4.10;3.70;;;;;;;14.69;54.82;99054.03;1728832;82;21042;-62
2021/11/22 03:32:32;;;;;;;3.85;3.55;;;;;;;14.69;54.82;99054.03;1715242;82;21152;-60
2021/11/22 03:34:59;;;;;;;3.87;3.58;;;;;;;14.69;54.83;99063.91;1722601;82;21003;-61
2021/11/22 03:37:25;;;;;;;3.98;3.65;;;;;;;14.69;54.81;99071.41;1712539;82;21189;-62
2021/11/22 03:39:52;;;;;;;4.67;4.15;;;;;;;14.68;54.81;99079.14;1716375;82;21525;-61
2021/11/22 03:42:22;;;;;;;4.10;3.70;;;;;;;14.70;54.81;99085.63;1713645;82;21530;-61
2021/11/22 03:44:48;;;;;;;4.75;4.35;;;;;;;14.69;54.81;99085.30;1711767;82;21227;-61
2021/11/22 03:47:15;;;;;;;4.60;4.15;;;;;;;14.68;54.81;99076.97;1712066;82;21092;-62
2021/11/22 03:49:41;;;;;;;4.78;4.35;;;;;;;14.67;54.79;99088.18;1710754;82;21046;-62
2021/11/22 03:52:09;;;;;;;4.40;4.00;;;;;;;14.67;54.78;99086.03;1701536;82;21121;-60
2021/11/22 03:54:37;;;;;;;4.12;3.72;;;;;;;14.67;54.79;99099.39;1716380;82;21530;-61
2021/11/22 03:57:05;;;;;;;4.60;4.20;;;;;;;14.66;54.80;99099.92;1731170;82;22175;-61
2021/11/22 03:59:32;;;;;;;4.15;3.85;;;;;;;14.67;54.81;99103.41;1708571;82;21045;-61
2021/11/22 04:01:59;;;;;;;4.53;4.08;;;;;;;14.66;54.80;99103.93;1715984;82;21262;-62
2021/11/22 04:04:25;;;;;;;5.00;4.50;;;;;;;14.65;54.82;99110.30;1725219;82;21530;-62
2021/11/22 04:06:52;;;;;;;4.28;3.87;;;;;;;14.65;54.79;99113.48;1729659;82;21558;-61
2021/11/22 04:09:18;;;;;;;4.28;3.83;;;;;;;14.65;54.77;99116.16;1709104;82;22035;-61
2021/11/22 04:11:45;;;;;;;4.33;3.92;;;;;;;14.64;54.77;99116.69;1709775;82;21080;-60
2021/11/22 04:14:12;;;;;;;4.62;4.22;;;;;;;14.65;54.77;99122.84;1719797;81;21055;-61
2021/11/22 04:16:40;;;;;;;4.22;3.83;;;;;;;14.65;54.76;99128.19;1707154;82;21542;-61
2021/11/22 04:19:08;;;;;;;4.60;4.20;;;;;;;14.64;54.77;99125.20;1715731;82;21653;-61
2021/11/22 04:21:35;;;;;;;4.55;4.12;;;;;;;14.63;54.75;99125.72;1712147;82;21144;-61
2021/11/22 04:24:03;;;;;;;4.17;3.72;;;;;;;14.65;54.73;99130.87;1711777;82;21026;-61
2021/11/22 04:26:31;;;;;;;4.08;3.70;;;;;;;14.63;54.73;99136.42;1705096;82;21027;-62
2021/11/22 04:28:59;;;;;;;4.42;4.03;;;;;;;14.63;54.72;99148.45;1703072;81;21057;-62
2021/11/22 04:31:26;;;;;;;4.35;3.90;;;;;;;14.63;54.71;99148.97;1705922;82;21023;-62
2021/11/22 04:33:53;;;;;;;4.42;4.03;;;;;;;14.63;54.71;99157.80;1704234;82;21226;-61
2021/11/22 04:36:19;;;;;;;4.25;3.77;;;;;;;14.62;54.72;99154.00;1705703;82;21098;-63
2021/11/22 04:38:45;;;;;;;4.37;3.98;;;;;;;14.62;54.71;99164.20;1690258;84;21034;-61
2021/11/22 04:41:12;;;;;;;4.20;3.80;;;;;;;14.62;54.71;99168.20;1705816;82;21009;-61
2021/11/22 04:43:39;;;;;;;4.00;3.70;;;;;;;14.62;54.68;99166.02;1706232;82;21046;-62
2021/11/22 04:46:05;;;;;;;3.87;3.58;;;;;;;14.61;54.67;99171.89;1720076;82;21718;-61
2021/11/22 04:48:33;;;;;;;4.65;3.67;;;;;;;14.61;54.66;99170.56;1704044;82;21632;-62
2021/11/22 04:51:00;;;;;;;4.25;3.85;;;;;;;14.61;54.65;99179.09;1709728;82;21030;-63
2021/11/22 04:53:26;;;;;;;3.77;3.47;;;;;;;14.60;54.63;99188.95;1715167;82;21552;-61
2021/11/22 04:55:54;;;;;;;4.58;4.17;;;;;;;14.61;54.63;99185.78;1708010;82;21125;-62
2021/11/22 04:58:21;;;;;;;3.60;3.30;;;;;;;14.60;54.61;99182.78;1719926;82;21535;-62
2021/11/22 05:00:47;;;;;;;4.30;3.90;;;;;;;14.60;54.61;99188.95;1709686;82;21026;-61
2021/11/22 05:03:14;;;;;;;4.17;3.77;;;;;;;14.60;54.62;99190.80;1702574;82;21086;-62
2021/11/22 05:05:41;;;;;;;4.35;3.95;;;;;;;14.59;54.59;99194.00;1707675;82;21712;-61
2021/11/22 05:08:10;;;;;;;4.12;3.72;;;;;;;14.58;54.60;99195.02;1693401;82;21605;-61
2021/11/22 05:10:41;;;;;;;4.33;3.92;;;;;;;14.58;54.60;99203.03;1720820;82;21144;-61
2021/11/22 05:13:10;;;;;;;4.00;3.60;;;;;;;14.58;54.59;99202.22;1706005;82;21086;-61
2021/11/22 05:15:37;;;;;;;3.80;3.50;;;;;;;14.58;54.56;99214.25;1715644;82;21055;-61
2021/11/22 05:18:07;;;;;;;4.20;3.80;;;;;;;14.58;54.58;99223.61;1708792;82;21490;-61
2021/11/22 05:20:34;;;;;;;3.87;3.58;;;;;;;14.57;54.56;99225.46;1713806;82;21099;-61
2021/11/22 05:23:00;;;;;;;4.10;3.70;;;;;;;14.56;54.55;99229.13;1707399;82;21130;-61
2021/11/22 05:25:27;;;;;;;3.72;3.30;;;;;;;14.55;54.54;99234.98;1722384;82;21081;-62
2021/11/22 05:27:54;;;;;;;4.35;3.95;;;;;;;14.56;54.55;99243.82;1715930;82;20995;-61
2021/11/22 05:30:25;;;;;;;4.20;3.80;;;;;;;14.57;54.52;99243.36;1709740;81;21058;-63
2021/11/22 05:32:55;;;;;;;4.05;3.65;;;;;;;14.55;54.52;99242.20;1698694;82;21057;-62
2021/11/22 05:35:23;;;;;;;4.22;3.83;;;;;;;14.46;54.52;99237.55;1710379;82;21095;-61
2021/11/22 05:37:49;;;;;;;3.83;3.52;;;;;;;14.55;54.52;99256.89;1705492;82;21105;-61
2021/11/22 05:40:16;;;;;;;4.05;3.67;;;;;;;14.55;54.52;99259.56;1710374;82;21063;-62
2021/11/22 05:42:42;;;;;;;3.83;3.42;;;;;;;14.54;54.52;99260.09;1705572;82;21081;-63
2021/11/22 05:45:09;;;;;;;3.52;3.22;;;;;;;14.54;54.50;99264.59;1713147;82;21059;-61
2021/11/22 05:47:35;;;;;;;3.37;3.08;;;;;;;14.54;54.50;99268.59;1712362;82;23214;-61
2021/11/22 05:50:05;;;;;;;4.03;3.70;;;;;;;14.54;54.48;99274.79;1717334;82;21617;-61
2021/11/22 05:52:36;;;;;;;4.08;3.77;;;;;;;14.54;54.48;99273.45;1715465;82;21034;-60
2021/11/22 05:55:11;;;;;;;3.62;3.25;;;;;;;14.55;54.46;99279.61;1702683;82;21022;-61
2021/11/22 05:57:37;;;;;;;4.17;3.50;;;;;;;14.55;54.45;99283.63;1709870;82;21610;-61
2021/11/22 06:00:05;;;;;;;4.05;3.65;;;;;;;14.54;54.45;99288.16;1708585;82;21130;-61
2021/11/22 06:02:35;;;;;;;3.92;3.58;;;;;;;14.54;54.45;99288.64;1723281;82;21576;-62
2021/11/22 06:05:02;;;;;;;3.47;3.17;;;;;;;14.54;54.45;99291.32;1709071;82;21019;-61
2021/11/22 06:07:29;;;;;;;3.92;3.52;;;;;;;14.53;54.44;99291.02;1716594;82;21089;-62
2021/11/22 06:09:58;;;;;;;3.83;3.42;;;;;;;14.53;54.44;99297.19;1723347;82;21057;-61
2021/11/22 06:12:24;;;;;;;3.33;3.02;;;;;;;14.54;54.43;99299.34;1674881;84;21148;-61
2021/11/22 06:14:52;;;;;;;3.70;3.40;;;;;;;14.53;54.43;99310.55;1671971;84;21024;-61
2021/11/22 06:17:19;;;;;;;3.50;3.20;;;;;;;14.54;54.43;99306.86;1675629;84;21102;-62
2021/11/22 06:19:46;;;;;;;3.42;3.12;;;;;;;14.56;54.41;99313.31;1684218;84;21081;-62
2021/11/22 06:22:12;;;;;;;4.30;3.08;;;;;;;14.57;54.40;99314.20;1672277;84;21046;-63
2021/11/22 06:24:39;;;;;;;3.50;3.20;;;;;;;14.55;54.37;99312.50;1661216;85;21072;-63
2021/11/22 06:27:05;;;;;;;4.10;3.70;;;;;;;14.57;54.38;99321.69;1667482;85;21070;-62
2021/11/22 06:29:33;;;;;;;3.87;3.58;;;;;;;14.59;54.34;99322.83;1679652;84;21050;-62
2021/11/22 06:31:59;;;;;;;3.08;2.85;;;;;;;14.60;54.34;99325.27;1683881;84;21133;-62
2021/11/22 06:34:26;;;;;;;3.40;3.10;;;;;;;14.61;54.32;99323.45;1682908;84;21089;-62
2021/11/22 06:36:52;;;;;;;3.72;3.42;;;;;;;14.62;54.25;99328.59;1684230;84;21545;-63
2021/11/22 06:39:19;;;;;;;3.42;3.12;;;;;;;14.64;54.24;99329.70;1671481;84;21089;-64
2021/11/22 06:41:45;;;;;;;3.75;3.45;;;;;;;14.65;54.21;99326.02;1675492;84;21098;-62
2021/11/22 06:44:13;;;;;;;3.65;3.35;;;;;;;14.67;54.19;99329.30;1683796;84;21098;-63
2021/11/22 06:46:43;;;;;;;3.62;3.33;;;;;;;14.68;54.14;99335.79;1682268;84;21047;-63
2021/11/22 06:49:08;;;;;;;3.40;3.10;;;;;;;14.69;54.13;99342.77;1670320;84;21214;-61
2021/11/22 06:51:35;;;;;;;3.27;2.98;;;;;;;14.70;54.10;99345.77;1670323;84;21074;-63
2021/11/22 06:54:01;;;;;;;3.27;2.98;;;;;;;14.71;54.09;99345.24;1676226;84;21056;-62
2021/11/22 06:56:28;;;;;;;3.37;3.08;;;;;;;14.72;54.06;99352.25;1690818;84;21124;-63
2021/11/22 06:58:54;;;;;;;3.60;3.30;;;;;;;14.72;54.05;99355.73;1687698;84;21425;-63
2021/11/22 07:01:21;;;;;;;3.00;2.80;;;;;;;14.73;54.03;99357.37;1676853;84;21122;-63
2021/11/22 07:03:48;;;;;;;3.27;2.98;;;;;;;14.75;54.00;99356.65;1670746;84;21073;-62
2021/11/22 07:06:15;;;;;;;3.15;2.85;;;;;;;14.75;53.96;99353.98;1678304;84;21112;-61
2021/11/22 07:08:41;;;;;;;3.27;2.98;;;;;;;14.75;53.95;99357.98;1677208;84;21616;-62
2021/11/22 07:11:08;;;;;;;3.62;3.33;;;;;;;14.77;53.93;99362.32;1673285;84;21075;-63
2021/11/22 07:13:35;;;;;;;8.40;3.77;;;;;;;14.77;53.93;99364.47;1683896;84;21162;-64
2021/11/22 07:16:02;;;;;;;7.45;4.20;;;;;;;14.83;61.69;99374.34;1679181;85;21118;-62
2021/11/22 07:18:30;;;;;;;6.08;4.00;;;;;;;15.13;68.21;99377.45;1670863;85;21118;-63
2021/11/22 07:20:57;;;;;;;5.37;3.70;;;;;;;15.43;67.59;99385.05;1675351;85;21050;-61
2021/11/22 07:23:24;;;;;;;5.17;3.80;;;;;;;15.55;66.07;99389.25;1667722;85;21078;-62
2021/11/22 07:25:53;;;;;;;5.70;4.28;;;;;;;15.60;65.07;99386.74;1673827;84;21097;-62
2021/11/22 07:28:20;;;;;;;5.12;4.17;;;;;;;15.63;64.48;99387.67;1707300;82;21534;-61
2021/11/22 07:30:47;;;;;;;3.85;3.33;;;;;;;15.66;64.00;99395.27;1706886;82;21085;-63
2021/11/22 07:33:14;;;;;;;4.62;3.67;;;;;;;15.68;63.59;99402.61;1716173;82;22018;-62
2021/11/22 07:35:41;;;;;;;6.15;3.52;;;;;;;15.67;63.26;99405.48;1697312;82;21062;-63
2021/11/22 07:38:08;;;;;;;5.15;4.05;;;;;;;15.66;62.89;99407.32;1699256;82;21225;-63
2021/11/22 07:40:34;;;;;;;4.30;3.87;;;;;;;15.66;62.52;99407.84;1720805;82;20992;-63
2021/11/22 07:43:01;;;;;;;7.33;3.42;;;;;;;15.64;62.20;99413.41;1715042;82;21107;-63
2021/11/22 07:45:28;;;;;;;5.62;3.35;;;;;;;15.64;61.88;99417.94;1706835;82;21082;-64
2021/11/22 07:47:56;;;;;;;3.72;3.27;;;;;;;15.64;61.59;99419.28;1710953;82;21136;-62
2021/11/22 07:50:25;;;;;;;5.80;3.50;;;;;;;15.61;61.29;99417.86;1719058;82;21829;-63
2021/11/22 07:52:51;;;;;;;3.92;2.55;;;;;;;15.60;61.00;99422.89;1706402;82;21058;-63
2021/11/22 07:55:21;;;;;;;4.15;3.20;;;;;;;15.59;60.75;99422.59;1717174;82;21062;-60
2021/11/22 07:57:48;;;;;;;4.87;3.02;;;;;;;15.58;60.52;99419.59;1681071;84;21565;-61
2021/11/22 08:00:17;;;;;;;3.33;3.02;;;;;;;15.58;60.27;99426.81;1674088;84;21113;-63
2021/11/22 08:02:44;;;;;;;3.92;3.60;;;;;;;15.57;60.04;99426.00;1675220;84;21208;-61
2021/11/22 08:05:11;;;;;;;3.30;3.00;;;;;;;15.57;59.79;99441.22;1682302;84;21042;-63
2021/11/22 08:07:42;;;;;;;4.75;3.10;;;;;;;15.57;59.57;99438.55;1677515;84;21074;-61
2021/11/22 08:10:27;;;;;;;3.65;3.30;;;;;;;15.57;59.36;99446.58;1677983;83;21121;-62
2021/11/22 08:12:59;;;;;;;3.35;3.05;;;;;;;15.57;59.16;99450.59;1673681;84;21085;-62
2021/11/22 08:15:31;;;;;;;3.80;3.37;;;;;;;15.58;58.98;99458.95;1707462;83;22191;-64
2021/11/22 08:18:00;;;;;;;4.25;3.42;;;;;;;15.57;58.75;99458.13;1697854;83;21112;-63
2021/11/22 08:20:26;;;;;;;3.20;2.90;;;;;;;15.58;58.60;99461.09;1696680;83;21055;-63
2021/11/22 08:22:52;;;;;;;4.17;3.50;;;;;;;15.58;58.43;99457.61;1681519;83;21072;-62
2021/11/22 08:25:22;;;;;;;3.50;2.80;;;;;;;15.59;58.23;99468.11;1676742;83;21044;-62
2021/11/22 08:27:53;;;;;;;4.35;3.02;;;;;;;15.60;58.04;99460.90;1676188;84;21100;-60
2021/11/22 08:30:18;;;;;;;6.87;3.17;;;;;;;15.61;57.89;99463.90;1696266;84;21060;-62
2021/11/22 08:32:48;;;;;;;3.58;2.90;;;;;;;15.61;57.74;99470.06;1682393;84;21168;-61
2021/11/22 08:35:16;;;;;;;3.77;2.77;;;;;;;15.62;57.59;99484.27;1683040;84;21315;-61
2021/11/22 08:37:43;;;;;;;3.42;3.00;;;;;;;15.63;57.46;99483.25;1683126;84;21145;-62
2021/11/22 08:40:13;;;;;;;3.27;2.98;;;;;;;15.63;57.30;99479.23;1679438;84;22419;-64
2021/11/22 08:42:40;;;;;;;3.00;2.70;;;;;;;15.64;57.20;99483.55;1712831;83;21048;-61
2021/11/22 08:45:07;;;;;;;3.55;2.98;;;;;;;15.65;57.04;99482.00;1708680;83;21095;-61
2021/11/22 08:47:35;;;;;;;3.50;3.20;;;;;;;15.65;56.95;99487.36;1704808;83;21084;-61
2021/11/22 08:50:02;;;;;;;4.28;3.00;;;;;;;15.67;56.80;99485.82;1711656;83;21200;-61
2021/11/22 08:52:29;;;;;;;3.50;3.05;;;;;;;15.68;56.69;99495.48;1714985;83;21122;-61
2021/11/22 08:54:56;;;;;;;4.20;3.02;;;;;;;15.68;56.59;99494.15;1720724;83;21045;-60
2021/11/22 08:57:22;;;;;;;3.85;2.75;;;;;;;15.69;56.45;99499.83;1693197;83;21053;-61
2021/11/22 08:59:49;;;;;;;3.20;2.90;;;;;;;15.70;56.37;99498.78;1689650;83;21653;-61
2021/11/22 09:02:15;;;;;;;3.47;3.02;;;;;;;15.71;56.26;99499.10;1685955;84;21089;-60
2021/11/22 09:04:42;;;;;;;3.98;3.02;;;;;;;15.71;56.16;99505.27;1691749;84;21146;-62
2021/11/22 09:07:09;;;;;;;3.25;2.95;;;;;;;15.72;56.07;99506.94;1694152;84;21095;-62
2021/11/22 09:09:36;;;;;;;3.45;3.05;;;;;;;15.72;55.98;99502.91;1706506;83;21133;-62
2021/11/22 09:12:03;;;;;;;3.52;2.80;;;;;;;15.73;55.90;99502.42;1691552;83;21086;-61
2021/11/22 09:14:31;;;;;;;4.30;3.42;;;;;;;15.75;55.82;99507.58;1708608;82;21109;-61
2021/11/22 09:16:58;;;;;;;3.80;2.92;;;;;;;15.75;55.75;99509.73;1702925;84;21941;-62
2021/11/22 09:19:24;;;;;;;3.37;3.05;;;;;;;15.76;55.66;99512.73;1704455;84;21046;-61
2021/11/22 09:21:51;;;;;;;3.52;2.90;;;;;;;15.78;55.55;99513.84;1696285;83;21136;-60
2021/11/22 09:24:18;;;;;;;3.08;2.75;;;;;;;15.79;55.46;99507.47;1699304;82;22203;-60
2021/11/22 09:26:44;;;;;;;3.33;2.98;;;;;;;15.79;55.39;99510.96;1688129;84;21022;-60
2021/11/22 09:29:11;;;;;;;2.87;2.58;;;;;;;15.82;55.31;99513.73;1682833;84;21220;-61
2021/11/22 09:31:37;;;;;;;3.50;3.20;;;;;;;15.83;55.23;99510.85;1689406;83;21624;-59
2021/11/22 09:34:04;;;;;;;3.10;2.80;;;;;;;15.84;55.15;99512.52;1683152;84;21026;-59
2021/11/22 09:36:30;;;;;;;3.62;2.77;;;;;;;15.85;55.06;99511.46;1691694;83;21039;-61
2021/11/22 09:38:57;;;;;;;3.45;2.60;;;;;;;15.86;55.01;99525.18;1689855;84;21102;-61
2021/11/22 09:41:27;;;;;;;3.50;3.12;;;;;;;15.86;54.95;99514.47;1688142;84;21157;-61
2021/11/22 09:43:55;;;;;;;3.15;2.75;;;;;;;15.87;54.88;99515.28;1679527;84;21100;-60
2021/11/22 09:46:22;;;;;;;3.72;3.25;;;;;;;15.88;54.80;99515.08;1721745;82;21045;-60
2021/11/22 09:48:49;;;;;;;4.03;2.52;;;;;;;15.89;54.76;99522.06;1732377;82;21037;-60
2021/11/22 09:51:16;;;;;;;3.90;3.40;;;;;;;15.90;54.69;99521.58;1720258;82;21077;-63
2021/11/22 09:53:42;;;;;;;3.58;3.02;;;;;;;15.91;54.62;99519.19;1725201;82;21123;-62
2021/11/22 09:56:09;;;;;;;3.27;2.98;;;;;;;15.92;54.54;99521.66;1728944;82;21125;-61
2021/11/22 09:58:36;;;;;;;3.83;3.12;;;;;;;15.93;54.48;99514.44;1719057;82;21027;-60
2021/11/22 10:01:13;;;;;;;3.35;3.05;;;;;;;15.96;54.39;99515.38;1720088;82;21116;-62
2021/11/22 10:03:38;;;;;;;4.67;2.80;;;;;;;15.99;54.35;99516.80;1712879;81;21547;-61
2021/11/22 10:06:04;;;;;;;3.10;2.75;;;;;;;16.01;54.28;99514.25;1716906;82;21230;-61
2021/11/22 10:08:42;;;;;;;3.37;3.02;;;;;;;16.03;54.20;99515.34;1718420;82;21089;-61
2021/11/22 10:11:09;;;;;;;2.95;2.65;;;;;;;16.04;54.11;99513.81;1717205;82;21077;-60
2021/11/22 10:13:40;;;;;;;4.10;3.22;;;;;;;16.06;54.10;99514.42;1718002;80;21133;-61
2021/11/22 10:16:21;;;;;;;2.92;2.62;;;;;;;16.08;54.03;99513.69;1722583;82;21588;-60
2021/11/22 10:18:59;;;;;;;3.22;2.92;;;;;;;16.15;53.90;99511.51;1732912;82;21140;-62
2021/11/22 10:21:37;;;;;;;3.52;2.90;;;;;;;16.19;53.86;99508.74;1728732;82;21053;-61
2021/11/22 10:24:07;;;;;;;3.22;2.92;;;;;;;16.23;53.79;99514.80;1726698;82;21549;-64
2021/11/22 10:26:41;;;;;;;3.15;2.72;;;;;;;16.25;53.83;99515.41;1722929;82;21033;-62
2021/11/22 10:29:10;;;;;;;3.55;3.15;;;;;;;16.31;53.81;99516.42;1719187;82;21104;-63
2021/11/22 10:31:37;;;;;;;3.33;3.00;;;;;;;16.34;53.76;99518.70;1731841;82;22050;-62
2021/11/22 10:34:04;;;;;;;2.95;2.65;;;;;;;16.38;53.67;99517.73;1738576;82;21641;-63
2021/11/22 10:36:37;;;;;;;3.27;2.98;;;;;;;16.41;53.65;99517.32;1721799;82;21181;-61
2021/11/22 10:39:00;;;;;;;2.80;2.52;;;;;;;16.43;53.65;99518.74;1727083;82;21035;-62
2021/11/22 10:41:37;;;;;;;4.80;3.02;;;;;;;16.44;53.57;99513.70;1731248;82;21049;-60
2021/11/22 10:44:12;;;;;;;3.77;3.08;;;;;;;16.46;53.49;99514.84;1732669;80;21159;-61
2021/11/22 10:46:45;;;;;;;2.95;2.65;;;;;;;16.47;53.46;99511.92;1720309;82;22087;-61
2021/11/22 10:49:30;;;;;;;2.87;2.58;;;;;;;16.48;53.42;99518.13;1724676;82;21090;-61
2021/11/22 10:52:14;;;;;;;3.85;3.37;;;;;;;16.49;53.43;99515.21;1728876;82;21054;-61
2021/11/22 10:54:57;;;;;;;3.40;3.08;;;;;;;16.54;53.34;99524.50;1723825;82;21029;-61
2021/11/22 10:57:46;;;;;;;2.98;2.65;;;;;;;16.62;53.03;99528.28;1730743;82;21184;-61
2021/11/22 11:00:24;;;;;;;2.90;2.60;;;;;;;16.66;52.92;99524.95;1730897;82;21039;-61
2021/11/22 11:02:52;;;;;;;4.40;3.15;;;;;;;16.77;52.79;99526.67;1738184;82;21012;-59
2021/11/22 11:05:34;;;;;;;3.00;2.70;;;;;;;16.84;52.68;99526.98;1727170;82;21054;-60
2021/11/22 11:08:09;;;;;;;3.05;2.75;;;;;;;16.92;52.55;99541.16;1733256;80;21018;-61
2021/11/22 11:10:36;;;;;;;2.62;2.42;;;;;;;16.98;52.51;99534.93;1726246;82;21801;-61
2021/11/22 11:13:04;;;;;;;3.02;2.72;;;;;;;17.02;52.51;99540.20;1729290;80;21142;-60
2021/11/22 11:15:32;;;;;;;3.30;3.00;;;;;;;17.05;52.51;99531.70;1728510;81;21125;-60
2021/11/22 11:18:00;;;;;;;2.77;2.47;;;;;;;17.08;52.47;99536.65;1727782;80;21085;-60
2021/11/22 11:20:29;;;;;;;3.40;3.10;;;;;;;17.08;52.43;99542.83;1733319;82;21010;-61
2021/11/22 11:22:55;;;;;;;3.10;2.77;;;;;;;17.10;52.41;99546.64;1726070;82;21165;-62
2021/11/22 11:25:24;;;;;;;3.42;3.12;;;;;;;17.10;52.35;99556.04;1725754;82;21045;-61
2021/11/22 11:27:50;;;;;;;3.42;3.12;;;;;;;17.10;52.28;99550.67;1729225;82;21061;-63
2021/11/22 11:30:20;;;;;;;3.22;2.92;;;;;;;17.10;52.23;99534.05;1732206;82;21084;-61
2021/11/22 11:32:49;;;;;;;3.37;2.65;;;;;;;17.09;52.20;99537.78;1743186;80;21057;-61
2021/11/22 11:35:18;;;;;;;3.37;3.08;;;;;;;17.09;52.17;99536.44;1723412;82;21545;-61
2021/11/22 11:37:56;;;;;;;3.65;2.85;;;;;;;17.10;52.13;99546.64;1727931;82;21050;-62
2021/11/22 11:41:08;;;;;;;3.05;2.72;;;;;;;17.09;52.07;99543.15;1725502;82;21538;-60